sensor_id;sensor_type;location;lat;lon;timestamp;P1;durP1;ratioP1;P2;durP2;ratioP2
44832;SDS011;30569;51.252;9.830;2023-11-21T00:01:35;5.30;;;2.40;;
44832;SDS011;30569;51.252;9.830;2023-11-21T00:04:02;6.23;;;2.50;;
44832;SDS011;30569;51.252;9.830;2023-11-21T00:06:27;7.27;;;2.10;;
44832;SDS011;30569;51.252;9.830;2023-11-21T00:08:55;8.83;;;2.57;;
44832;SDS011;30569;51.252;9.830;2023-11-21T00:11:20;7.10;;;2.67;;
44832;SDS011;30569;51.252;9.830;2023-11-21T00:13:46;6.53;;;2.27;;
44832;SDS011;30569;51.252;9.830;2023-11-21T00:16:12;10.90;;;2.40;;
44832;SDS011;30569;51.252;9.830;2023-11-21T00:18:38;6.40;;;2.70;;
44832;SDS011;30569;51.252;9.830;2023-11-21T00:21:04;10.70;;;3.80;;
44832;SDS011;30569;51.252;9.830;2023-11-21T00:23:30;7.80;;;3.40;;
44832;SDS011;30569;51.252;9.830;2023-11-21T00:25:55;6.40;;;2.87;;
44832;SDS011;30569;51.252;9.830;2023-11-21T00:28:21;6.47;;;2.83;;
44832;SDS011;30569;51.252;9.830;2023-11-21T00:30:47;7.83;;;2.87;;
44832;SDS011;30569;51.252;9.830;2023-11-21T00:33:13;8.73;;;3.38;;
44832;SDS011;30569;51.252;9.830;2023-11-21T00:35:38;9.35;;;3.10;;
44832;SDS011;30569;51.252;9.830;2023-11-21T00:38:04;11.43;;;3.50;;
44832;SDS011;30569;51.252;9.830;2023-11-21T00:40:29;15.77;;;5.77;;
44832;SDS011;30569;51.252;9.830;2023-11-21T00:42:55;9.60;;;4.63;;
44832;SDS011;30569;51.252;9.830;2023-11-21T00:45:21;10.48;;;3.95;;
44832;SDS011;30569;51.252;9.830;2023-11-21T00:47:47;11.73;;;4.70;;
44832;SDS011;30569;51.252;9.830;2023-11-21T00:50:12;9.57;;;3.83;;
44832;SDS011;30569;51.252;9.830;2023-11-21T00:52:38;7.20;;;2.70;;
44832;SDS011;30569;51.252;9.830;2023-11-21T00:55:04;5.75;;;2.92;;
44832;SDS011;30569;51.252;9.830;2023-11-21T00:57:32;4.43;;;2.37;;
44832;SDS011;30569;51.252;9.830;2023-11-21T00:59:58;6.17;;;2.47;;
44832;SDS011;30569;51.252;9.830;2023-11-21T01:02:24;4.87;;;2.30;;
44832;SDS011;30569;51.252;9.830;2023-11-21T01:04:50;5.70;;;2.50;;
44832;SDS011;30569;51.252;9.830;2023-11-21T01:07:16;7.03;;;2.30;;
44832;SDS011;30569;51.252;9.830;2023-11-21T01:09:45;6.73;;;3.17;;
44832;SDS011;30569;51.252;9.830;2023-11-21T01:12:11;5.17;;;2.60;;
44832;SDS011;30569;51.252;9.830;2023-11-21T01:14:36;5.27;;;2.67;;
44832;SDS011;30569;51.252;9.830;2023-11-21T01:17:02;6.37;;;2.70;;
44832;SDS011;30569;51.252;9.830;2023-11-21T01:19:29;4.70;;;2.23;;
44832;SDS011;30569;51.252;9.830;2023-11-21T01:21:55;8.37;;;2.97;;
44832;SDS011;30569;51.252;9.830;2023-11-21T01:24:22;5.40;;;2.97;;
44832;SDS011;30569;51.252;9.830;2023-11-21T01:26:48;10.33;;;3.10;;
44832;SDS011;30569;51.252;9.830;2023-11-21T01:29:14;8.07;;;3.03;;
44832;SDS011;30569;51.252;9.830;2023-11-21T01:31:40;6.30;;;2.60;;
44832;SDS011;30569;51.252;9.830;2023-11-21T01:34:06;6.80;;;2.80;;
44832;SDS011;30569;51.252;9.830;2023-11-21T01:36:32;5.77;;;2.60;;
44832;SDS011;30569;51.252;9.830;2023-11-21T01:38:58;6.53;;;2.57;;
44832;SDS011;30569;51.252;9.830;2023-11-21T01:41:27;9.10;;;3.57;;
44832;SDS011;30569;51.252;9.830;2023-11-21T01:43:53;6.17;;;2.73;;
44832;SDS011;30569;51.252;9.830;2023-11-21T01:46:20;5.43;;;2.53;;
44832;SDS011;30569;51.252;9.830;2023-11-21T01:48:46;5.80;;;2.70;;
44832;SDS011;30569;51.252;9.830;2023-11-21T01:51:14;6.60;;;2.60;;
44832;SDS011;30569;51.252;9.830;2023-11-21T01:53:40;5.13;;;2.30;;
44832;SDS011;30569;51.252;9.830;2023-11-21T01:56:06;9.63;;;2.77;;
44832;SDS011;30569;51.252;9.830;2023-11-21T01:58:33;5.47;;;2.30;;
44832;SDS011;30569;51.252;9.830;2023-11-21T02:00:59;5.73;;;2.97;;
44832;SDS011;30569;51.252;9.830;2023-11-21T02:03:24;4.43;;;2.37;;
44832;SDS011;30569;51.252;9.830;2023-11-21T02:05:52;4.97;;;2.13;;
44832;SDS011;30569;51.252;9.830;2023-11-21T02:08:18;5.87;;;2.40;;
44832;SDS011;30569;51.252;9.830;2023-11-21T02:10:44;6.27;;;2.17;;
44832;SDS011;30569;51.252;9.830;2023-11-21T02:13:10;4.90;;;2.57;;
44832;SDS011;30569;51.252;9.830;2023-11-21T02:15:36;8.20;;;2.50;;
44832;SDS011;30569;51.252;9.830;2023-11-21T02:18:03;5.30;;;2.33;;
44832;SDS011;30569;51.252;9.830;2023-11-21T02:20:31;5.13;;;2.70;;
44832;SDS011;30569;51.252;9.830;2023-11-21T02:23:00;4.90;;;2.63;;
44832;SDS011;30569;51.252;9.830;2023-11-21T02:25:30;7.50;;;2.97;;
44832;SDS011;30569;51.252;9.830;2023-11-21T02:27:57;8.80;;;3.00;;
44832;SDS011;30569;51.252;9.830;2023-11-21T02:30:24;6.00;;;2.90;;
44832;SDS011;30569;51.252;9.830;2023-11-21T02:32:50;5.90;;;2.50;;
44832;SDS011;30569;51.252;9.830;2023-11-21T02:35:19;9.63;;;3.30;;
44832;SDS011;30569;51.252;9.830;2023-11-21T02:37:50;8.13;;;2.93;;
44832;SDS011;30569;51.252;9.830;2023-11-21T02:40:16;8.17;;;3.23;;
44832;SDS011;30569;51.252;9.830;2023-11-21T02:42:50;7.68;;;3.08;;
44832;SDS011;30569;51.252;9.830;2023-11-21T02:45:16;5.20;;;2.93;;
44832;SDS011;30569;51.252;9.830;2023-11-21T02:47:42;7.73;;;3.40;;
44832;SDS011;30569;51.252;9.830;2023-11-21T02:50:08;8.77;;;3.50;;
44832;SDS011;30569;51.252;9.830;2023-11-21T02:52:35;9.07;;;3.60;;
44832;SDS011;30569;51.252;9.830;2023-11-21T02:55:01;9.10;;;3.80;;
44832;SDS011;30569;51.252;9.830;2023-11-21T02:57:27;7.07;;;3.50;;
44832;SDS011;30569;51.252;9.830;2023-11-21T02:59:53;12.37;;;5.60;;
44832;SDS011;30569;51.252;9.830;2023-11-21T03:02:19;8.50;;;3.63;;
44832;SDS011;30569;51.252;9.830;2023-11-21T03:04:45;31.10;;;13.07;;
44832;SDS011;30569;51.252;9.830;2023-11-21T03:07:10;17.17;;;7.13;;
44832;SDS011;30569;51.252;9.830;2023-11-21T03:09:36;15.43;;;6.27;;
44832;SDS011;30569;51.252;9.830;2023-11-21T03:12:02;9.63;;;4.53;;
44832;SDS011;30569;51.252;9.830;2023-11-21T03:14:27;8.33;;;4.00;;
44832;SDS011;30569;51.252;9.830;2023-11-21T03:16:53;13.10;;;4.27;;
44832;SDS011;30569;51.252;9.830;2023-11-21T03:19:18;10.87;;;4.37;;
44832;SDS011;30569;51.252;9.830;2023-11-21T03:21:44;11.93;;;4.87;;
44832;SDS011;30569;51.252;9.830;2023-11-21T03:24:09;9.40;;;3.83;;
44832;SDS011;30569;51.252;9.830;2023-11-21T03:26:35;8.70;;;3.03;;
44832;SDS011;30569;51.252;9.830;2023-11-21T03:29:02;8.83;;;3.70;;
44832;SDS011;30569;51.252;9.830;2023-11-21T03:31:28;8.40;;;3.90;;
44832;SDS011;30569;51.252;9.830;2023-11-21T03:33:54;9.63;;;3.47;;
44832;SDS011;30569;51.252;9.830;2023-11-21T03:36:19;6.60;;;3.50;;
44832;SDS011;30569;51.252;9.830;2023-11-21T03:38:45;7.40;;;4.13;;
44832;SDS011;30569;51.252;9.830;2023-11-21T03:41:10;10.55;;;3.95;;
44832;SDS011;30569;51.252;9.830;2023-11-21T03:43:37;6.63;;;3.73;;
44832;SDS011;30569;51.252;9.830;2023-11-21T03:46:03;10.57;;;4.00;;
44832;SDS011;30569;51.252;9.830;2023-11-21T03:48:28;19.52;;;9.50;;
44832;SDS011;30569;51.252;9.830;2023-11-21T03:50:54;10.32;;;4.70;;
44832;SDS011;30569;51.252;9.830;2023-11-21T03:53:20;9.85;;;4.22;;
44832;SDS011;30569;51.252;9.830;2023-11-21T03:55:45;11.77;;;4.38;;
44832;SDS011;30569;51.252;9.830;2023-11-21T03:58:11;8.57;;;3.63;;
44832;SDS011;30569;51.252;9.830;2023-11-21T04:00:37;9.20;;;3.60;;
44832;SDS011;30569;51.252;9.830;2023-11-21T04:03:03;8.82;;;4.28;;
44832;SDS011;30569;51.252;9.830;2023-11-21T04:05:29;10.73;;;4.05;;
44832;SDS011;30569;51.252;9.830;2023-11-21T04:07:56;11.07;;;3.65;;
44832;SDS011;30569;51.252;9.830;2023-11-21T04:10:22;9.25;;;4.28;;
44832;SDS011;30569;51.252;9.830;2023-11-21T04:12:48;8.93;;;3.42;;
44832;SDS011;30569;51.252;9.830;2023-11-21T04:15:14;9.25;;;3.45;;
44832;SDS011;30569;51.252;9.830;2023-11-21T04:17:39;5.65;;;3.00;;
44832;SDS011;30569;51.252;9.830;2023-11-21T04:20:06;7.15;;;2.78;;
44832;SDS011;30569;51.252;9.830;2023-11-21T04:22:40;6.37;;;2.67;;
44832;SDS011;30569;51.252;9.830;2023-11-21T04:25:08;5.57;;;2.63;;
44832;SDS011;30569;51.252;9.830;2023-11-21T04:27:39;8.07;;;2.70;;
44832;SDS011;30569;51.252;9.830;2023-11-21T04:30:05;5.10;;;3.00;;
44832;SDS011;30569;51.252;9.830;2023-11-21T04:32:31;6.33;;;2.63;;
44832;SDS011;30569;51.252;9.830;2023-11-21T04:34:57;8.10;;;3.03;;
44832;SDS011;30569;51.252;9.830;2023-11-21T04:37:23;5.97;;;2.90;;
44832;SDS011;30569;51.252;9.830;2023-11-21T04:39:49;7.80;;;2.77;;
44832;SDS011;30569;51.252;9.830;2023-11-21T04:42:15;5.60;;;2.93;;
44832;SDS011;30569;51.252;9.830;2023-11-21T04:44:40;6.37;;;2.77;;
44832;SDS011;30569;51.252;9.830;2023-11-21T04:47:06;5.73;;;2.77;;
44832;SDS011;30569;51.252;9.830;2023-11-21T04:49:32;5.10;;;2.70;;
44832;SDS011;30569;51.252;9.830;2023-11-21T04:51:58;7.10;;;3.07;;
44832;SDS011;30569;51.252;9.830;2023-11-21T04:54:24;7.40;;;2.90;;
44832;SDS011;30569;51.252;9.830;2023-11-21T04:56:50;6.57;;;3.13;;
44832;SDS011;30569;51.252;9.830;2023-11-21T04:59:15;4.80;;;2.50;;
44832;SDS011;30569;51.252;9.830;2023-11-21T05:01:41;5.73;;;2.87;;
44832;SDS011;30569;51.252;9.830;2023-11-21T05:04:06;6.33;;;2.77;;
44832;SDS011;30569;51.252;9.830;2023-11-21T05:06:33;5.20;;;2.90;;
44832;SDS011;30569;51.252;9.830;2023-11-21T05:08:59;6.90;;;2.80;;
44832;SDS011;30569;51.252;9.830;2023-11-21T05:11:25;12.00;;;3.20;;
44832;SDS011;30569;51.252;9.830;2023-11-21T05:13:52;9.53;;;3.20;;
44832;SDS011;30569;51.252;9.830;2023-11-21T05:16:19;5.90;;;2.70;;
44832;SDS011;30569;51.252;9.830;2023-11-21T05:18:45;5.67;;;2.60;;
44832;SDS011;30569;51.252;9.830;2023-11-21T05:21:10;5.10;;;3.00;;
44832;SDS011;30569;51.252;9.830;2023-11-21T05:23:36;8.87;;;3.20;;
44832;SDS011;30569;51.252;9.830;2023-11-21T05:26:02;10.93;;;3.10;;
44832;SDS011;30569;51.252;9.830;2023-11-21T05:28:28;5.97;;;3.33;;
44832;SDS011;30569;51.252;9.830;2023-11-21T05:30:54;6.67;;;3.20;;
44832;SDS011;30569;51.252;9.830;2023-11-21T05:33:20;9.87;;;3.90;;
44832;SDS011;30569;51.252;9.830;2023-11-21T05:35:45;9.13;;;3.73;;
44832;SDS011;30569;51.252;9.830;2023-11-21T05:38:13;11.13;;;5.30;;
44832;SDS011;30569;51.252;9.830;2023-11-21T05:40:38;19.23;;;6.20;;
44832;SDS011;30569;51.252;9.830;2023-11-21T05:43:04;12.17;;;4.93;;
44832;SDS011;30569;51.252;9.830;2023-11-21T05:45:30;11.10;;;6.03;;
44832;SDS011;30569;51.252;9.830;2023-11-21T05:47:57;27.83;;;12.43;;
44832;SDS011;30569;51.252;9.830;2023-11-21T05:50:23;31.07;;;14.23;;
44832;SDS011;30569;51.252;9.830;2023-11-21T05:52:49;26.00;;;11.47;;
44832;SDS011;30569;51.252;9.830;2023-11-21T05:55:15;31.87;;;13.90;;
44832;SDS011;30569;51.252;9.830;2023-11-21T05:57:41;21.60;;;9.93;;
44832;SDS011;30569;51.252;9.830;2023-11-21T06:00:09;26.63;;;8.77;;
44832;SDS011;30569;51.252;9.830;2023-11-21T06:02:49;15.77;;;6.90;;
44832;SDS011;30569;51.252;9.830;2023-11-21T06:05:18;16.80;;;6.72;;
44832;SDS011;30569;51.252;9.830;2023-11-21T06:07:45;11.23;;;5.53;;
44832;SDS011;30569;51.252;9.830;2023-11-21T06:10:11;13.63;;;5.27;;
44832;SDS011;30569;51.252;9.830;2023-11-21T06:12:42;10.80;;;5.10;;
44832;SDS011;30569;51.252;9.830;2023-11-21T06:15:09;8.50;;;3.87;;
44832;SDS011;30569;51.252;9.830;2023-11-21T06:17:38;7.60;;;4.03;;
44832;SDS011;30569;51.252;9.830;2023-11-21T06:20:05;6.60;;;3.73;;
44832;SDS011;30569;51.252;9.830;2023-11-21T06:22:39;10.33;;;4.10;;
44832;SDS011;30569;51.252;9.830;2023-11-21T06:25:06;7.77;;;3.90;;
44832;SDS011;30569;51.252;9.830;2023-11-21T06:27:37;8.33;;;4.37;;
44832;SDS011;30569;51.252;9.830;2023-11-21T06:30:07;7.83;;;4.17;;
44832;SDS011;30569;51.252;9.830;2023-11-21T06:32:36;8.47;;;4.33;;
44832;SDS011;30569;51.252;9.830;2023-11-21T06:35:03;10.33;;;5.30;;
44832;SDS011;30569;51.252;9.830;2023-11-21T06:37:29;11.73;;;5.23;;
44832;SDS011;30569;51.252;9.830;2023-11-21T06:39:55;16.73;;;7.03;;
44832;SDS011;30569;51.252;9.830;2023-11-21T06:42:23;19.83;;;8.60;;
44832;SDS011;30569;51.252;9.830;2023-11-21T06:44:49;14.13;;;5.70;;
44832;SDS011;30569;51.252;9.830;2023-11-21T06:47:17;15.73;;;7.47;;
44832;SDS011;30569;51.252;9.830;2023-11-21T06:49:43;17.43;;;7.87;;
44832;SDS011;30569;51.252;9.830;2023-11-21T06:52:08;11.00;;;5.70;;
44832;SDS011;30569;51.252;9.830;2023-11-21T06:54:34;13.63;;;6.00;;
44832;SDS011;30569;51.252;9.830;2023-11-21T06:57:00;11.13;;;5.07;;
44832;SDS011;30569;51.252;9.830;2023-11-21T06:59:28;8.77;;;4.23;;
44832;SDS011;30569;51.252;9.830;2023-11-21T07:01:54;9.70;;;4.07;;
44832;SDS011;30569;51.252;9.830;2023-11-21T07:04:20;7.33;;;3.73;;
44832;SDS011;30569;51.252;9.830;2023-11-21T07:06:45;11.57;;;4.50;;
44832;SDS011;30569;51.252;9.830;2023-11-21T07:09:11;8.83;;;4.27;;
44832;SDS011;30569;51.252;9.830;2023-11-21T07:11:37;9.37;;;4.53;;
44832;SDS011;30569;51.252;9.830;2023-11-21T07:14:03;12.97;;;4.97;;
44832;SDS011;30569;51.252;9.830;2023-11-21T07:16:34;17.10;;;5.57;;
44832;SDS011;30569;51.252;9.830;2023-11-21T07:19:00;13.03;;;6.53;;
44832;SDS011;30569;51.252;9.830;2023-11-21T07:21:25;13.43;;;7.10;;
44832;SDS011;30569;51.252;9.830;2023-11-21T07:23:51;15.40;;;7.43;;
44832;SDS011;30569;51.252;9.830;2023-11-21T07:26:16;22.83;;;8.43;;
44832;SDS011;30569;51.252;9.830;2023-11-21T07:28:42;13.57;;;6.57;;
44832;SDS011;30569;51.252;9.830;2023-11-21T07:31:08;13.23;;;7.07;;
44832;SDS011;30569;51.252;9.830;2023-11-21T07:33:33;11.77;;;6.37;;
44832;SDS011;30569;51.252;9.830;2023-11-21T07:35:59;10.30;;;5.10;;
44832;SDS011;30569;51.252;9.830;2023-11-21T07:38:24;12.43;;;5.87;;
44832;SDS011;30569;51.252;9.830;2023-11-21T07:40:50;24.90;;;14.97;;
44832;SDS011;30569;51.252;9.830;2023-11-21T07:43:15;38.10;;;22.07;;
44832;SDS011;30569;51.252;9.830;2023-11-21T07:45:41;46.37;;;24.70;;
44832;SDS011;30569;51.252;9.830;2023-11-21T07:48:07;37.27;;;21.60;;
44832;SDS011;30569;51.252;9.830;2023-11-21T07:50:33;45.00;;;26.48;;
44832;SDS011;30569;51.252;9.830;2023-11-21T07:52:58;44.43;;;25.63;;
44832;SDS011;30569;51.252;9.830;2023-11-21T07:55:24;42.05;;;25.05;;
44832;SDS011;30569;51.252;9.830;2023-11-21T07:57:50;58.97;;;30.92;;
44832;SDS011;30569;51.252;9.830;2023-11-21T08:00:15;39.90;;;22.17;;
44832;SDS011;30569;51.252;9.830;2023-11-21T08:02:41;35.53;;;17.90;;
44832;SDS011;30569;51.252;9.830;2023-11-21T08:05:07;21.23;;;12.57;;
44832;SDS011;30569;51.252;9.830;2023-11-21T08:07:33;21.63;;;13.03;;
44832;SDS011;30569;51.252;9.830;2023-11-21T08:09:59;25.02;;;13.82;;
44832;SDS011;30569;51.252;9.830;2023-11-21T08:12:25;23.87;;;14.20;;
44832;SDS011;30569;51.252;9.830;2023-11-21T08:14:52;29.85;;;15.30;;
44832;SDS011;30569;51.252;9.830;2023-11-21T08:17:18;26.30;;;15.18;;
44832;SDS011;30569;51.252;9.830;2023-11-21T08:19:45;25.92;;;13.52;;
44832;SDS011;30569;51.252;9.830;2023-11-21T08:22:14;24.77;;;12.23;;
44832;SDS011;30569;51.252;9.830;2023-11-21T08:24:43;28.33;;;13.13;;
44832;SDS011;30569;51.252;9.830;2023-11-21T08:27:09;24.05;;;11.77;;
44832;SDS011;30569;51.252;9.830;2023-11-21T08:29:35;20.00;;;11.27;;
44832;SDS011;30569;51.252;9.830;2023-11-21T08:32:01;19.98;;;11.70;;
44832;SDS011;30569;51.252;9.830;2023-11-21T08:34:27;20.13;;;11.50;;
44832;SDS011;30569;51.252;9.830;2023-11-21T08:36:53;24.20;;;12.88;;
44832;SDS011;30569;51.252;9.830;2023-11-21T08:39:20;22.80;;;11.95;;
44832;SDS011;30569;51.252;9.830;2023-11-21T08:41:49;23.25;;;13.25;;
44832;SDS011;30569;51.252;9.830;2023-11-21T08:44:15;34.90;;;15.63;;
44832;SDS011;30569;51.252;9.830;2023-11-21T08:46:43;35.35;;;16.25;;
44832;SDS011;30569;51.252;9.830;2023-11-21T08:49:10;40.80;;;18.70;;
44832;SDS011;30569;51.252;9.830;2023-11-21T08:51:37;34.08;;;18.02;;
44832;SDS011;30569;51.252;9.830;2023-11-21T08:54:02;26.52;;;15.18;;
44832;SDS011;30569;51.252;9.830;2023-11-21T08:56:32;30.27;;;14.35;;
44832;SDS011;30569;51.252;9.830;2023-11-21T08:58:57;23.77;;;12.05;;
44832;SDS011;30569;51.252;9.830;2023-11-21T09:01:23;23.27;;;13.65;;
44832;SDS011;30569;51.252;9.830;2023-11-21T09:03:49;20.58;;;12.95;;
44832;SDS011;30569;51.252;9.830;2023-11-21T09:06:15;26.92;;;14.10;;
44832;SDS011;30569;51.252;9.830;2023-11-21T09:08:40;22.48;;;13.23;;
44832;SDS011;30569;51.252;9.830;2023-11-21T09:11:07;18.40;;;8.77;;
44832;SDS011;30569;51.252;9.830;2023-11-21T09:13:33;20.70;;;9.77;;
44832;SDS011;30569;51.252;9.830;2023-11-21T09:15:59;15.65;;;7.30;;
44832;SDS011;30569;51.252;9.830;2023-11-21T09:18:25;15.57;;;7.18;;
44832;SDS011;30569;51.252;9.830;2023-11-21T09:20:51;13.02;;;6.70;;
44832;SDS011;30569;51.252;9.830;2023-11-21T09:23:17;14.25;;;7.15;;
44832;SDS011;30569;51.252;9.830;2023-11-21T09:25:42;12.88;;;6.47;;
44832;SDS011;30569;51.252;9.830;2023-11-21T09:28:11;16.00;;;6.63;;
44832;SDS011;30569;51.252;9.830;2023-11-21T09:30:37;18.70;;;6.75;;
44832;SDS011;30569;51.252;9.830;2023-11-21T09:33:03;13.13;;;7.18;;
44832;SDS011;30569;51.252;9.830;2023-11-21T09:35:33;22.48;;;10.38;;
44832;SDS011;30569;51.252;9.830;2023-11-21T09:37:59;31.42;;;15.32;;
44832;SDS011;30569;51.252;9.830;2023-11-21T09:40:26;28.25;;;14.02;;
44832;SDS011;30569;51.252;9.830;2023-11-21T09:42:54;20.27;;;10.48;;
44832;SDS011;30569;51.252;9.830;2023-11-21T09:45:25;19.38;;;9.32;;
44832;SDS011;30569;51.252;9.830;2023-11-21T09:47:55;15.40;;;8.07;;
44832;SDS011;30569;51.252;9.830;2023-11-21T09:50:21;13.73;;;7.63;;
44832;SDS011;30569;51.252;9.830;2023-11-21T09:52:55;13.65;;;6.63;;
44832;SDS011;30569;51.252;9.830;2023-11-21T09:55:26;15.20;;;7.18;;
44832;SDS011;30569;51.252;9.830;2023-11-21T09:57:55;10.88;;;6.03;;
44832;SDS011;30569;51.252;9.830;2023-11-21T10:00:22;16.75;;;6.30;;
44832;SDS011;30569;51.252;9.830;2023-11-21T10:02:52;10.98;;;5.47;;
44832;SDS011;30569;51.252;9.830;2023-11-21T10:05:18;11.43;;;6.10;;
44832;SDS011;30569;51.252;9.830;2023-11-21T10:07:47;9.00;;;5.15;;
44832;SDS011;30569;51.252;9.830;2023-11-21T10:10:14;11.95;;;5.63;;
44832;SDS011;30569;51.252;9.830;2023-11-21T10:12:44;10.23;;;5.38;;
44832;SDS011;30569;51.252;9.830;2023-11-21T10:15:14;10.45;;;5.80;;
44832;SDS011;30569;51.252;9.830;2023-11-21T10:17:41;10.82;;;5.55;;
44832;SDS011;30569;51.252;9.830;2023-11-21T10:20:10;11.38;;;5.50;;
44832;SDS011;30569;51.252;9.830;2023-11-21T10:22:41;9.27;;;4.60;;
44832;SDS011;30569;51.252;9.830;2023-11-21T10:25:08;10.32;;;4.85;;
44832;SDS011;30569;51.252;9.830;2023-11-21T10:27:34;7.90;;;4.30;;
44832;SDS011;30569;51.252;9.830;2023-11-21T10:30:07;8.45;;;4.95;;
44832;SDS011;30569;51.252;9.830;2023-11-21T10:32:37;9.00;;;4.55;;
44832;SDS011;30569;51.252;9.830;2023-11-21T10:35:03;7.75;;;4.03;;
44832;SDS011;30569;51.252;9.830;2023-11-21T10:37:35;8.25;;;4.30;;
44832;SDS011;30569;51.252;9.830;2023-11-21T10:40:05;7.55;;;4.03;;
44832;SDS011;30569;51.252;9.830;2023-11-21T10:42:40;9.45;;;4.25;;
44832;SDS011;30569;51.252;9.830;2023-11-21T10:45:07;8.00;;;3.80;;
44832;SDS011;30569;51.252;9.830;2023-11-21T10:47:40;10.98;;;5.80;;
44832;SDS011;30569;51.252;9.830;2023-11-21T10:50:06;16.17;;;7.55;;
44832;SDS011;30569;51.252;9.830;2023-11-21T10:52:35;18.88;;;11.48;;
44832;SDS011;30569;51.252;9.830;2023-11-21T10:55:17;36.85;;;18.58;;
44832;SDS011;30569;51.252;9.830;2023-11-21T10:57:51;15.50;;;9.20;;
44832;SDS011;30569;51.252;9.830;2023-11-21T11:00:18;13.30;;;6.90;;
44832;SDS011;30569;51.252;9.830;2023-11-21T11:02:46;11.15;;;6.45;;
44832;SDS011;30569;51.252;9.830;2023-11-21T11:05:24;9.02;;;4.88;;
44832;SDS011;30569;51.252;9.830;2023-11-21T11:07:51;9.65;;;4.78;;
44832;SDS011;30569;51.252;9.830;2023-11-21T11:10:33;8.52;;;4.47;;
44832;SDS011;30569;51.252;9.830;2023-11-21T11:12:59;8.88;;;4.00;;
44832;SDS011;30569;51.252;9.830;2023-11-21T11:15:26;7.00;;;4.07;;
44832;SDS011;30569;51.252;9.830;2023-11-21T11:17:52;6.93;;;3.45;;
44832;SDS011;30569;51.252;9.830;2023-11-21T11:20:22;8.48;;;3.35;;
44832;SDS011;30569;51.252;9.830;2023-11-21T11:28:52;7.13;;;2.47;;
44832;SDS011;30569;51.252;9.830;2023-11-21T11:31:46;4.43;;;2.33;;
44832;SDS011;30569;51.252;9.830;2023-11-21T11:37:07;4.15;;;2.10;;
44832;SDS011;30569;51.252;9.830;2023-11-21T11:42:06;5.28;;;2.13;;
44832;SDS011;30569;51.252;9.830;2023-11-21T11:44:52;5.18;;;1.90;;
44832;SDS011;30569;51.252;9.830;2023-11-21T11:50:03;5.88;;;2.00;;
44832;SDS011;30569;51.252;9.830;2023-11-21T11:52:41;4.75;;;2.22;;
44832;SDS011;30569;51.252;9.830;2023-11-21T11:55:20;3.92;;;1.75;;
44832;SDS011;30569;51.252;9.830;2023-11-21T11:57:53;4.40;;;1.95;;
44832;SDS011;30569;51.252;9.830;2023-11-21T12:02:52;5.05;;;1.85;;
44832;SDS011;30569;51.252;9.830;2023-11-21T12:05:20;3.70;;;1.77;;
44832;SDS011;30569;51.252;9.830;2023-11-21T12:10:14;4.60;;;1.90;;
44832;SDS011;30569;51.252;9.830;2023-11-21T12:12:46;4.22;;;1.80;;
44832;SDS011;30569;51.252;9.830;2023-11-21T12:15:13;4.05;;;1.80;;
44832;SDS011;30569;51.252;9.830;2023-11-21T12:17:42;4.68;;;1.85;;
44832;SDS011;30569;51.252;9.830;2023-11-21T12:20:09;4.85;;;1.70;;
44832;SDS011;30569;51.252;9.830;2023-11-21T12:22:48;5.47;;;1.70;;
44832;SDS011;30569;51.252;9.830;2023-11-21T12:25:18;5.65;;;1.70;;
44832;SDS011;30569;51.252;9.830;2023-11-21T12:27:46;12.10;;;5.90;;
44832;SDS011;30569;51.252;9.830;2023-11-21T12:30:17;4.68;;;2.40;;
44832;SDS011;30569;51.252;9.830;2023-11-21T12:32:44;7.13;;;3.60;;
44832;SDS011;30569;51.252;9.830;2023-11-21T12:35:13;7.07;;;4.07;;
44832;SDS011;30569;51.252;9.830;2023-11-21T12:37:40;6.15;;;3.50;;
44832;SDS011;30569;51.252;9.830;2023-11-21T12:40:09;5.68;;;2.58;;
44832;SDS011;30569;51.252;9.830;2023-11-21T12:42:40;5.68;;;3.08;;
44832;SDS011;30569;51.252;9.830;2023-11-21T12:45:18;5.05;;;2.60;;
44832;SDS011;30569;51.252;9.830;2023-11-21T12:50:14;8.88;;;2.75;;
44832;SDS011;30569;51.252;9.830;2023-11-21T12:52:46;5.47;;;2.88;;
44832;SDS011;30569;51.252;9.830;2023-11-21T12:55:18;6.85;;;3.75;;
44832;SDS011;30569;51.252;9.830;2023-11-21T12:57:48;5.53;;;3.20;;
44832;SDS011;30569;51.252;9.830;2023-11-21T13:00:16;6.95;;;3.35;;
44832;SDS011;30569;51.252;9.830;2023-11-21T13:02:56;6.15;;;3.63;;
44832;SDS011;30569;51.252;9.830;2023-11-21T13:05:23;7.60;;;3.65;;
44832;SDS011;30569;51.252;9.830;2023-11-21T13:07:50;7.03;;;3.63;;
44832;SDS011;30569;51.252;9.830;2023-11-21T13:10:19;6.38;;;3.15;;
44832;SDS011;30569;51.252;9.830;2023-11-21T13:12:52;10.13;;;3.78;;
44832;SDS011;30569;51.252;9.830;2023-11-21T13:15:18;7.80;;;4.35;;
44832;SDS011;30569;51.252;9.830;2023-11-21T13:17:45;7.93;;;4.53;;
44832;SDS011;30569;51.252;9.830;2023-11-21T13:20:13;10.20;;;5.78;;
44832;SDS011;30569;51.252;9.830;2023-11-21T13:22:44;12.38;;;6.00;;
44832;SDS011;30569;51.252;9.830;2023-11-21T13:25:33;12.43;;;5.78;;
44832;SDS011;30569;51.252;9.830;2023-11-21T13:27:59;10.70;;;4.80;;
44832;SDS011;30569;51.252;9.830;2023-11-21T13:30:25;9.05;;;4.32;;
44832;SDS011;30569;51.252;9.830;2023-11-21T13:32:53;7.57;;;3.80;;
44832;SDS011;30569;51.252;9.830;2023-11-21T13:35:22;7.82;;;3.97;;
44832;SDS011;30569;51.252;9.830;2023-11-21T13:37:56;6.05;;;3.47;;
44832;SDS011;30569;51.252;9.830;2023-11-21T13:40:25;7.72;;;3.70;;
44832;SDS011;30569;51.252;9.830;2023-11-21T13:42:54;6.72;;;3.42;;
44832;SDS011;30569;51.252;9.830;2023-11-21T13:45:24;7.47;;;4.25;;
44832;SDS011;30569;51.252;9.830;2023-11-21T13:47:51;9.23;;;3.92;;
44832;SDS011;30569;51.252;9.830;2023-11-21T13:50:20;9.02;;;4.43;;
44832;SDS011;30569;51.252;9.830;2023-11-21T13:52:52;8.80;;;5.03;;
44832;SDS011;30569;51.252;9.830;2023-11-21T13:55:18;10.27;;;5.22;;
44832;SDS011;30569;51.252;9.830;2023-11-21T13:57:44;13.20;;;5.40;;
44832;SDS011;30569;51.252;9.830;2023-11-21T14:00:14;10.95;;;6.43;;
44832;SDS011;30569;51.252;9.830;2023-11-21T14:03:00;8.65;;;5.03;;
44832;SDS011;30569;51.252;9.830;2023-11-21T14:05:27;10.45;;;5.07;;
44832;SDS011;30569;51.252;9.830;2023-11-21T14:07:56;9.55;;;5.35;;
44832;SDS011;30569;51.252;9.830;2023-11-21T14:10:29;8.70;;;5.25;;
44832;SDS011;30569;51.252;9.830;2023-11-21T14:13:15;11.20;;;4.85;;
44832;SDS011;30569;51.252;9.830;2023-11-21T14:15:41;9.70;;;5.55;;
44832;SDS011;30569;51.252;9.830;2023-11-21T14:18:10;11.80;;;5.82;;
44832;SDS011;30569;51.252;9.830;2023-11-21T14:20:37;12.48;;;5.97;;
44832;SDS011;30569;51.252;9.830;2023-11-21T14:23:04;9.57;;;5.53;;
44832;SDS011;30569;51.252;9.830;2023-11-21T14:25:32;9.45;;;5.97;;
44832;SDS011;30569;51.252;9.830;2023-11-21T14:27:58;12.02;;;5.72;;
44832;SDS011;30569;51.252;9.830;2023-11-21T14:30:24;10.60;;;5.85;;
44832;SDS011;30569;51.252;9.830;2023-11-21T14:32:50;11.88;;;5.90;;
44832;SDS011;30569;51.252;9.830;2023-11-21T14:35:16;11.70;;;6.38;;
44832;SDS011;30569;51.252;9.830;2023-11-21T14:37:42;10.23;;;5.75;;
44832;SDS011;30569;51.252;9.830;2023-11-21T14:40:08;15.32;;;6.95;;
44832;SDS011;30569;51.252;9.830;2023-11-21T14:42:34;12.73;;;6.63;;
44832;SDS011;30569;51.252;9.830;2023-11-21T14:45:04;13.40;;;6.80;;
44832;SDS011;30569;51.252;9.830;2023-11-21T14:47:32;10.70;;;6.22;;
44832;SDS011;30569;51.252;9.830;2023-11-21T14:49:58;11.20;;;6.50;;
44832;SDS011;30569;51.252;9.830;2023-11-21T14:52:24;11.10;;;6.47;;
44832;SDS011;30569;51.252;9.830;2023-11-21T14:55:03;12.40;;;6.95;;
44832;SDS011;30569;51.252;9.830;2023-11-21T14:57:47;14.10;;;6.50;;
44832;SDS011;30569;51.252;9.830;2023-11-21T15:00:16;13.50;;;7.20;;
44832;SDS011;30569;51.252;9.830;2023-11-21T15:03:04;11.45;;;6.57;;
44832;SDS011;30569;51.252;9.830;2023-11-21T15:05:30;10.88;;;6.40;;